| time (UTC) | temp F | wind direction | speed knots | gust knots | rain 1hr in | rain 24hr in | rain mn in | humidity % | barometer mb |
| 20260507094601 | 51 | 20 | 0.0 | 7.0 | 0.00 | 0.36 | 0.23 | 82 | 1012.1 |
| 20260507093053 | 51 | 355 | 0.9 | 7.8 | 0.00 | 0.36 | 0.23 | 84 | 1012.2 |
| 20260507091610 | 51 | 355 | 1.7 | 7.0 | 0.00 | 0.36 | 0.23 | 88 | 1012.3 |
| 20260507090049 | 51 | 360 | 0.0 | 4.3 | 0.00 | 0.36 | 0.23 | 90 | 1012.0 |
| 20260507084553 | 51 | 320 | 1.7 | 4.3 | 0.00 | 0.36 | 0.23 | 91 | 1011.8 |
| 20260507083045 | 51 | 14 | 0.0 | 5.2 | 0.00 | 0.36 | 0.23 | 91 | 1011.6 |
| 20260507081552 | 51 | 342 | 1.7 | 3.5 | 0.00 | 0.36 | 0.23 | 91 | 1011.2 |
| 20260507080045 | 51 | 342 | 1.7 | 4.3 | 0.02 | 0.36 | 0.23 | 91 | 1011.2 |
| 20260507074548 | 52 | 5 | 1.7 | 7.0 | 0.04 | 0.36 | 0.23 | 91 | 1011.3 |
| 20260507073041 | 52 | 5 | 2.6 | 7.0 | 0.05 | 0.36 | 0.23 | 91 | 1011.2 |
| 20260507071538 | 52 | 22 | 2.6 | 5.2 | 0.05 | 0.36 | 0.23 | 91 | 1011.3 |
| 20260507070037 | 52 | 10 | 0.0 | 4.3 | 0.02 | 0.33 | 0.20 | 90 | 1011.8 |
| 20260507064537 | 53 | 360 | 1.7 | 8.7 | 0.01 | 0.32 | 0.19 | 89 | 1011.6 |
| 20260507063035 | 53 | 360 | 5.2 | 8.7 | 0.00 | 0.31 | 0.18 | 89 | 1011.3 |
| 20260507061531 | 54 | 340 | 2.6 | 5.2 | 0.00 | 0.31 | 0.18 | 89 | 1011.5 |
| 20260507060029 | 54 | 340 | 0.0 | 4.3 | 0.01 | 0.31 | 0.18 | 89 | 1011.3 |
| 20260507054529 | 54 | 342 | 1.7 | 5.2 | 0.01 | 0.31 | 0.18 | 89 | 1011.7 |
| 20260507053028 | 54 | 355 | 3.5 | 8.7 | 0.07 | 0.31 | 0.18 | 89 | 1011.2 |
| 20260507051526 | 55 | 303 | 2.6 | 5.2 | 0.17 | 0.31 | 0.18 | 91 | 1011.3 |
| 20260507050029 | 55 | 348 | 4.3 | 7.8 | 0.17 | 0.30 | 0.17 | 91 | 1011.2 |
| 20260507044519 | 55 | 304 | 2.6 | 8.7 | 0.17 | 0.30 | 0.17 | 90 | 1011.5 |
| 20260507043023 | 56 | 294 | 4.3 | 7.0 | 0.08 | 0.21 | 0.08 | 88 | 1011.3 |
| 20260507041513 | 57 | 5 | 3.5 | 7.8 | 0.01 | 0.14 | 0.01 | 87 | 1010.8 |
| 20260507040008 | 57 | 331 | 5.2 | 11.3 | 0.00 | 0.13 | 0.13 | 85 | 1011.0 |
| 20260507034506 | 58 | 344 | 4.3 | 10.4 | 0.00 | 0.13 | 0.13 | 83 | 1010.6 |
| 20260507033002 | 59 | 5 | 2.6 | 12.2 | 0.00 | 0.13 | 0.13 | 83 | 1010.5 |
| 20260507031600 | 60 | 299 | 3.5 | 7.0 | 0.00 | 0.13 | 0.13 | 86 | 1010.6 |
| 20260507030100 | 60 | 304 | 5.2 | 8.7 | 0.00 | 0.13 | 0.13 | 86 | 1010.3 |
| 20260507024559 | 61 | 344 | 3.5 | 7.0 | 0.00 | 0.13 | 0.13 | 86 | 1010.3 |
| 20260507023109 | 61 | 335 | 5.2 | 11.3 | 0.00 | 0.13 | 0.13 | 85 | 1010.1 |
| 20260507021559 | 62 | 330 | 3.5 | 7.8 | 0.00 | 0.13 | 0.13 | 85 | 1010.1 |
| 20260507020103 | 62 | 328 | 3.5 | 8.7 | 0.00 | 0.13 | 0.13 | 86 | 1009.9 |
| 20260507014558 | 63 | 283 | 0.0 | 7.0 | 0.00 | 0.13 | 0.13 | 89 | 1009.7 |
| 20260507013057 | 63 | 317 | 4.3 | 9.6 | 0.00 | 0.13 | 0.13 | 89 | 1010.1 |
| 20260507011557 | 64 | 311 | 6.1 | 8.7 | 0.00 | 0.13 | 0.13 | 89 | 1010.0 |
| 20260507010055 | 65 | 333 | 1.7 | 5.2 | 0.00 | 0.13 | 0.13 | 87 | 1009.8 |
| 20260507004554 | 66 | 293 | 2.6 | 7.8 | 0.00 | 0.13 | 0.13 | 86 | 1010.0 |
| 20260507003109 | 67 | 215 | 0.9 | 3.5 | 0.00 | 0.13 | 0.13 | 84 | 1009.3 |
| 20260507001613 | 67 | 213 | 2.6 | 6.1 | 0.00 | 0.13 | 0.13 | 83 | 1009.2 |
| 20260507000055 | 67 | 237 | 0.9 | 4.3 | 0.00 | 0.13 | 0.13 | 83 | 1009.1 |
| 20260506234554 | 67 | 206 | 1.7 | 6.1 | 0.00 | 0.13 | 0.13 | 82 | 1008.6 |
| 20260506233055 | 67 | 228 | 2.6 | 5.2 | 0.00 | 0.13 | 0.13 | 81 | 1008.7 |
| 20260506231559 | 68 | 209 | 2.6 | 4.3 | 0.00 | 0.13 | 0.13 | 81 | 1008.5 |
| 20260506224551 | 68 | 200 | 1.7 | 6.1 | 0.00 | 0.13 | 0.13 | 80 | 1008.4 |
| 20260506223051 | 68 | 217 | 3.5 | 7.8 | 0.00 | 0.13 | 0.13 | 79 | 1008.4 |
| 20260506221604 | 68 | 228 | 4.3 | 7.8 | 0.00 | 0.13 | 0.13 | 79 | 1008.6 |
| 20260506220050 | 68 | 214 | 4.3 | 7.8 | 0.00 | 0.13 | 0.13 | 78 | 1008.4 |
| 20260506214554 | 68 | 233 | 3.5 | 7.8 | 0.00 | 0.13 | 0.13 | 79 | 1008.4 |
| 20260506213048 | 68 | 236 | 3.5 | 8.7 | 0.00 | 0.13 | 0.13 | 78 | 1008.2 |
| 20260506211548 | 68 | 227 | 6.1 | 8.7 | 0.00 | 0.13 | 0.13 | 77 | 1008.2 |
| 20260506210055 | 68 | 238 | 7.0 | 11.3 | 0.00 | 0.13 | 0.13 | 77 | 1008.0 |
| 20260506204550 | 68 | 244 | 8.7 | 13.9 | 0.00 | 0.13 | 0.13 | 77 | 1007.9 |
| 20260506203045 | 68 | 243 | 3.5 | 10.4 | 0.00 | 0.13 | 0.13 | 78 | 1008.0 |
| 20260506201545 | 68 | 226 | 6.1 | 12.2 | 0.00 | 0.13 | 0.13 | 78 | 1007.9 |
| 20260506200053 | 67 | 224 | 6.1 | 8.7 | 0.00 | 0.13 | 0.13 | 79 | 1008.0 |
| 20260506194543 | 67 | 230 | 4.3 | 8.7 | 0.00 | 0.13 | 0.13 | 81 | 1008.0 |
| 20260506193046 | 66 | 206 | 7.0 | 8.7 | 0.00 | 0.13 | 0.13 | 81 | 1008.1 |
| 20260506191541 | 66 | 184 | 4.3 | 10.4 | 0.00 | 0.13 | 0.13 | 81 | 1008.2 |
| 20260506190039 | 66 | 219 | 8.7 | 13.9 | 0.00 | 0.13 | 0.13 | 82 | 1008.3 |
| 20260506184544 | 65 | 190 | 6.1 | 13.0 | 0.00 | 0.13 | 0.13 | 84 | 1008.5 |
| 20260506183036 | 64 | 207 | 2.6 | 13.0 | 0.00 | 0.13 | 0.13 | 85 | 1008.5 |
| 20260506181541 | 64 | 223 | 6.1 | 13.9 | 0.00 | 0.13 | 0.13 | 85 | 1008.6 |
| 20260506180035 | 64 | 234 | 6.1 | 16.5 | 0.00 | 0.13 | 0.13 | 86 | 1008.9 |
| 20260506174536 | 63 | 215 | 7.0 | 13.0 | 0.00 | 0.13 | 0.13 | 87 | 1008.9 |
| 20260506173032 | 62 | 228 | 7.0 | 13.0 | 0.00 | 0.13 | 0.13 | 88 | 1008.8 |
| 20260506171534 | 62 | 192 | 9.6 | 14.8 | 0.00 | 0.13 | 0.13 | 89 | 1008.8 |
| 20260506170036 | 62 | 227 | 5.2 | 13.9 | 0.00 | 0.13 | 0.13 | 89 | 1008.9 |
| 20260506164545 | 61 | 166 | 7.0 | 15.6 | 0.00 | 0.13 | 0.13 | 89 | 1009.0 |
| 20260506163029 | 61 | 208 | 7.0 | 13.0 | 0.00 | 0.13 | 0.13 | 90 | 1008.9 |
| 20260506161528 | 60 | 197 | 10.4 | 17.4 | 0.00 | 0.13 | 0.13 | 90 | 1009.0 |
| 20260506160026 | 60 | 195 | 6.1 | 20.0 | 0.02 | 0.13 | 0.13 | 91 | 1009.1 |
| 20260506154524 | 60 | 209 | 7.8 | 18.2 | 0.03 | 0.13 | 0.13 | 91 | 1009.2 |
| 20260506153021 | 60 | 189 | 7.8 | 14.8 | 0.04 | 0.13 | 0.13 | 91 | 1009.1 |
| 20260506151518 | 60 | 175 | 6.1 | 12.2 | 0.05 | 0.13 | 0.13 | 91 | 1009.5 |
| 20260506150018 | 60 | 211 | 7.0 | 17.4 | 0.04 | 0.11 | 0.11 | 91 | 1009.9 |
| 20260506144523 | 60 | 190 | 7.8 | 15.6 | 0.05 | 0.10 | 0.10 | 91 | 1009.8 |
| 20260506143013 | 60 | 188 | 6.1 | 13.9 | 0.05 | 0.09 | 0.09 | 90 | 1009.9 |
| 20260506141523 | 60 | 209 | 8.7 | 14.8 | 0.06 | 0.08 | 0.08 | 90 | 1009.6 |
| 20260506140008 | 60 | 171 | 6.1 | 10.4 | 0.05 | 0.06 | 0.06 | 90 | 1009.7 |
| 20260506134505 | 61 | 182 | 6.1 | 13.0 | 0.05 | 0.05 | 0.05 | 89 | 1010.3 |
| 20260506133003 | 61 | 207 | 5.2 | 10.4 | 0.04 | 0.04 | 0.04 | 88 | 1010.2 |
| 20260506131616 | 61 | 198 | 4.3 | 9.6 | 0.02 | 0.02 | 0.02 | 86 | 1010.0 |
| 20260506130057 | 62 | 234 | 4.3 | 10.4 | 0.01 | 0.01 | 0.01 | 84 | 1009.9 |
| 20260506124553 | 63 | 200 | 5.2 | 9.6 | 0.00 | 0.00 | 0.00 | 81 | 1009.8 |
| 20260506123150 | 63 | 193 | 7.0 | 11.3 | 0.00 | 0.00 | 0.00 | 79 | 1009.9 |
| 20260506121554 | 64 | 198 | 7.0 | 11.3 | 0.00 | 0.00 | 0.00 | 77 | 1010.2 |
| 20260506120058 | 64 | 243 | 7.0 | 13.0 | 0.00 | 0.00 | 0.00 | 76 | 1010.4 |
| 20260506114544 | 64 | 206 | 7.0 | 14.8 | 0.00 | 0.00 | 0.00 | 75 | 1010.2 |
| 20260506113042 | 64 | 200 | 7.8 | 13.9 | 0.00 | 0.00 | 0.00 | 74 | 1009.8 |
| 20260506111545 | 64 | 248 | 7.0 | 13.9 | 0.00 | 0.00 | 0.00 | 74 | 1009.7 |
| 20260506110041 | 64 | 210 | 6.1 | 13.0 | 0.00 | 0.00 | 0.00 | 74 | 1009.4 |
| 20260506104545 | 64 | 215 | 10.4 | 18.2 | 0.00 | 0.00 | 0.00 | 74 | 1009.3 |
| 20260506103042 | 64 | 212 | 7.8 | 12.2 | 0.00 | 0.00 | 0.00 | 74 | 1009.2 |
| 20260506101532 | 64 | 210 | 7.0 | 13.9 | 0.00 | 0.00 | 0.00 | 73 | 1009.2 |
| 20260506100028 | 65 | 217 | 6.1 | 11.3 | 0.00 | 0.00 | 0.00 | 73 | 1009.2 |